Time;durP1;ratioP1;P1;durP2;ratioP2;P2;SDS_P1;SDS_P2;PMS_P1;PMS_P2;Temp;Humidity;BMP_temperature;BMP_pressure;BME280_temperature;BME280_humidity;BME280_pressure;Samples;Min_cycle;Max_cycle;Signal;HPM_P1;HPM_P2
2022/04/21 00:00:11;;;;;;;4.90;3.03;;;;;;;;;;5047716;28;20029;-85
2022/04/21 00:02:37;;;;;;;5.72;3.55;;;;;;;;;;5044445;28;20540;-82
2022/04/21 00:05:03;;;;;;;9.20;3.72;;;;;;;;;;5039356;28;20025;-84
2022/04/21 00:07:28;;;;;;;6.22;3.60;;;;;;;;;;5038169;28;20045;-83
2022/04/21 00:09:54;;;;;;;5.35;3.53;;;;;;;;;;5021214;28;20052;-84
2022/04/21 00:12:19;;;;;;;4.93;3.47;;;;;;;;;;5042679;28;20029;-82
2022/04/21 00:14:45;;;;;;;7.30;3.70;;;;;;;;;;5025710;28;20024;-83
2022/04/21 00:17:10;;;;;;;6.20;3.65;;;;;;;;;;5043818;28;20036;-82
2022/04/21 00:19:37;;;;;;;5.40;3.55;;;;;;;;;;5041988;28;20029;-83
2022/04/21 00:25:05;;;;;;;5.10;3.40;;;;;;;;;;5015022;28;20025;-84
2022/04/21 00:27:36;;;;;;;5.80;3.80;;;;;;;;;;5041549;28;20339;-83
2022/04/21 00:30:02;;;;;;;6.22;4.15;;;;;;;;;;5055948;28;20025;-84
2022/04/21 00:32:27;;;;;;;8.90;4.38;;;;;;;;;;5064652;28;20073;-84
2022/04/21 00:34:53;;;;;;;6.40;3.58;;;;;;;;;;5063806;28;20028;-84
2022/04/21 00:37:18;;;;;;;6.55;4.22;;;;;;;;;;5048379;28;20032;-82
2022/04/21 00:39:43;;;;;;;6.95;4.22;;;;;;;;;;5050106;28;20085;-83
2022/04/21 00:42:09;;;;;;;6.43;4.30;;;;;;;;;;5072522;28;20036;-83
2022/04/21 00:44:34;;;;;;;7.03;5.07;;;;;;;;;;5058836;28;20026;-85
2022/04/21 00:47:03;;;;;;;6.38;4.57;;;;;;;;;;5061791;28;20037;-83
2022/04/21 00:49:31;;;;;;;7.28;4.57;;;;;;;;;;5053863;28;20054;-83
2022/04/21 00:51:59;;;;;;;7.15;5.00;;;;;;;;;;5053916;28;20070;-85
2022/04/21 00:54:24;;;;;;;5.13;3.58;;;;;;;;;;5053871;28;20047;-84
2022/04/21 00:56:50;;;;;;;10.15;4.72;;;;;;;;;;5079525;28;20474;-84
2022/04/21 00:59:16;;;;;;;5.68;4.20;;;;;;;;;;5061595;28;20033;-84
2022/04/21 01:04:26;;;;;;;5.00;3.83;;;;;;;;;;5055639;28;20071;-83
2022/04/21 01:06:52;;;;;;;6.78;3.85;;;;;;;;;;5047429;28;20103;-83
2022/04/21 01:09:17;;;;;;;6.50;4.40;;;;;;;;;;5072606;28;20036;-82
2022/04/21 01:11:43;;;;;;;5.30;4.28;;;;;;;;;;5072796;28;20031;-83
2022/04/21 01:14:10;;;;;;;5.63;4.50;;;;;;;;;;5060963;28;20100;-82
2022/04/21 01:16:35;;;;;;;5.10;3.95;;;;;;;;;;5078090;28;20486;-83
2022/04/21 01:19:01;;;;;;;9.23;4.82;;;;;;;;;;5076807;28;20037;-84
2022/04/21 01:21:27;;;;;;;7.25;4.50;;;;;;;;;;5073785;28;20394;-83
2022/04/21 01:23:52;;;;;;;7.60;4.68;;;;;;;;;;5058034;28;20029;-84
2022/04/21 01:26:18;;;;;;;8.32;5.15;;;;;;;;;;5057609;28;20079;-83
2022/04/21 01:28:45;;;;;;;8.60;5.15;;;;;;;;;;5039148;28;20044;-81
2022/04/21 01:31:10;;;;;;;9.25;4.97;;;;;;;;;;5049337;28;20029;-83
2022/04/21 01:33:37;;;;;;;7.57;5.25;;;;;;;;;;5057987;28;20035;-84
2022/04/21 01:36:04;;;;;;;6.55;4.63;;;;;;;;;;5040085;28;20051;-83
2022/04/21 01:41:13;;;;;;;8.15;4.50;;;;;;;;;;5074354;28;20035;-83
2022/04/21 01:43:40;;;;;;;8.10;4.68;;;;;;;;;;5071437;28;20025;-83
2022/04/21 01:46:06;;;;;;;6.30;4.85;;;;;;;;;;5057795;28;20055;-83
2022/04/21 01:48:31;;;;;;;6.53;4.85;;;;;;;;;;5058227;28;20024;-83
2022/04/21 01:50:57;;;;;;;11.68;4.93;;;;;;;;;;5073668;28;20039;-82
2022/04/21 01:53:22;;;;;;;7.32;5.18;;;;;;;;;;5075791;28;20029;-82
2022/04/21 01:55:48;;;;;;;6.35;4.85;;;;;;;;;;5057634;28;20028;-82
2022/04/21 01:58:13;;;;;;;7.45;5.18;;;;;;;;;;5058033;28;20031;-82
2022/04/21 02:00:40;;;;;;;7.28;5.82;;;;;;;;;;5057729;28;20039;-85
2022/04/21 02:03:05;;;;;;;12.82;5.93;;;;;;;;;;5066004;28;20470;-82
2022/04/21 02:05:31;;;;;;;8.95;5.38;;;;;;;;;;5059793;28;20071;-85
2022/04/21 02:07:56;;;;;;;8.20;5.45;;;;;;;;;;5048098;28;20028;-84
2022/04/21 02:10:22;;;;;;;7.25;4.43;;;;;;;;;;5071024;28;20020;-84
2022/04/21 02:12:48;;;;;;;7.90;5.03;;;;;;;;;;5056149;28;20028;-82
2022/04/21 02:15:14;;;;;;;7.28;5.18;;;;;;;;;;5092506;28;20020;-81
2022/04/21 02:17:40;;;;;;;10.07;4.63;;;;;;;;;;5084098;28;20108;-79
2022/04/21 02:20:08;;;;;;;6.45;4.90;;;;;;;;;;5083745;28;20457;-81
2022/04/21 02:22:35;;;;;;;7.70;5.20;;;;;;;;;;5086338;28;20025;-81
2022/04/21 02:25:04;;;;;;;7.95;5.40;;;;;;;;;;5075525;28;20071;-82
2022/04/21 02:27:30;;;;;;;10.88;5.75;;;;;;;;;;5059983;28;20045;-81
2022/04/21 02:29:56;;;;;;;7.50;5.18;;;;;;;;;;5061783;28;20021;-81
2022/04/21 02:32:22;;;;;;;9.82;5.57;;;;;;;;;;5070960;28;20489;-82
2022/04/21 02:34:47;;;;;;;8.48;6.22;;;;;;;;;;5060544;28;20043;-81
2022/04/21 02:37:13;;;;;;;6.43;5.18;;;;;;;;;;5089989;28;20036;-85
2022/04/21 02:39:38;;;;;;;8.82;5.10;;;;;;;;;;5077545;28;20025;-84
2022/04/21 02:42:04;;;;;;;19.38;6.50;;;;;;;;;;5088488;28;20097;-83
2022/04/21 02:44:30;;;;;;;8.65;5.70;;;;;;;;;;5083891;28;20047;-83
2022/04/21 02:46:56;;;;;;;8.50;6.07;;;;;;;;;;5075631;28;20080;-83
2022/04/21 02:49:22;;;;;;;9.38;6.18;;;;;;;;;;5080979;28;20016;-83
2022/04/21 02:51:47;;;;;;;9.32;6.25;;;;;;;;;;5076300;28;20047;-83
2022/04/21 02:59:41;;;;;;;8.80;6.10;;;;;;;;;;5057146;28;20027;-83
2022/04/21 03:02:07;;;;;;;10.57;6.05;;;;;;;;;;5074433;28;20052;-83
2022/04/21 03:04:32;;;;;;;8.65;5.80;;;;;;;;;;5038766;28;20040;-83
2022/04/21 03:06:57;;;;;;;12.82;6.32;;;;;;;;;;5062109;28;20025;-83
2022/04/21 03:09:23;;;;;;;10.82;6.25;;;;;;;;;;5069144;28;20028;-82
2022/04/21 03:11:48;;;;;;;12.57;6.45;;;;;;;;;;5062311;28;20098;-83
2022/04/21 03:14:14;;;;;;;9.98;6.53;;;;;;;;;;5068206;28;20061;-84
2022/04/21 03:16:40;;;;;;;8.90;6.57;;;;;;;;;;5036639;28;20016;-84
2022/04/21 03:19:05;;;;;;;10.85;7.93;;;;;;;;;;5070232;28;20020;-82
2022/04/21 03:24:21;;;;;;;8.32;6.07;;;;;;;;;;5065346;28;20030;-83
2022/04/21 03:26:48;;;;;;;9.90;6.30;;;;;;;;;;5076823;28;20025;-83
2022/04/21 03:29:14;;;;;;;10.15;6.68;;;;;;;;;;5043361;28;20032;-83
2022/04/21 03:31:42;;;;;;;8.70;6.45;;;;;;;;;;5065006;28;20032;-82
2022/04/21 03:34:09;;;;;;;9.15;6.57;;;;;;;;;;5065159;28;20028;-83
2022/04/21 03:36:34;;;;;;;7.72;6.75;;;;;;;;;;5052557;28;20033;-84
2022/04/21 03:38:59;;;;;;;9.35;6.72;;;;;;;;;;5034934;28;20479;-83
2022/04/21 03:41:25;;;;;;;9.63;6.85;;;;;;;;;;5040740;28;20047;-82
2022/04/21 03:43:51;;;;;;;11.32;7.68;;;;;;;;;;5067332;28;20028;-81
2022/04/21 03:46:16;;;;;;;12.45;8.70;;;;;;;;;;5054925;28;20035;-82
2022/04/21 03:48:41;;;;;;;14.05;7.57;;;;;;;;;;5058017;28;20047;-81
2022/04/21 03:51:07;;;;;;;10.98;7.57;;;;;;;;;;5056659;28;20016;-81
2022/04/21 03:53:32;;;;;;;14.30;8.35;;;;;;;;;;5063062;28;20024;-81
2022/04/21 03:55:58;;;;;;;9.45;7.35;;;;;;;;;;5076555;28;20031;-82
2022/04/21 03:58:23;;;;;;;11.80;7.10;;;;;;;;;;5049103;28;20048;-82
2022/04/21 04:00:48;;;;;;;13.95;9.05;;;;;;;;;;5062977;28;20032;-82
2022/04/21 04:03:14;;;;;;;10.57;6.85;;;;;;;;;;5068629;28;20020;-82
2022/04/21 04:05:40;;;;;;;14.50;7.25;;;;;;;;;;5059830;28;20027;-81
2022/04/21 04:10:52;;;;;;;9.43;7.15;;;;;;;;;;5067413;28;20051;-79
2022/04/21 04:13:22;;;;;;;9.70;7.97;;;;;;;;;;5069551;28;20032;-80
2022/04/21 04:15:49;;;;;;;13.05;8.23;;;;;;;;;;5071505;28;20029;-79
2022/04/21 04:18:19;;;;;;;11.32;7.60;;;;;;;;;;5041823;28;20024;-82
2022/04/21 04:20:46;;;;;;;8.93;7.32;;;;;;;;;;5067601;28;20032;-82
2022/04/21 04:23:17;;;;;;;10.18;7.60;;;;;;;;;;5066310;28;20017;-81
2022/04/21 04:25:43;;;;;;;12.18;7.50;;;;;;;;;;5068332;28;20024;-81
2022/04/21 04:28:08;;;;;;;14.52;7.20;;;;;;;;;;5072344;28;20020;-80
2022/04/21 04:30:33;;;;;;;12.45;7.70;;;;;;;;;;5057670;28;20479;-82
2022/04/21 04:32:59;;;;;;;14.57;8.57;;;;;;;;;;5072921;28;20029;-82
2022/04/21 04:35:25;;;;;;;11.40;7.97;;;;;;;;;;5072689;28;20475;-82
2022/04/21 04:37:52;;;;;;;14.43;8.00;;;;;;;;;;5055931;28;20032;-82
2022/04/21 04:40:18;;;;;;;13.82;8.73;;;;;;;;;;5058767;28;20029;-81
2022/04/21 04:42:43;;;;;;;10.05;8.20;;;;;;;;;;5073817;28;20035;-83
2022/04/21 04:47:53;;;;;;;12.23;8.52;;;;;;;;;;5072433;28;20023;-83
2022/04/21 04:50:18;;;;;;;11.63;8.93;;;;;;;;;;5057427;28;20122;-82
2022/04/21 04:52:44;;;;;;;10.75;8.13;;;;;;;;;;5039174;28;20506;-81
2022/04/21 04:55:10;;;;;;;16.25;8.50;;;;;;;;;;5070053;28;20399;-82
2022/04/21 04:57:36;;;;;;;12.10;8.52;;;;;;;;;;5064189;28;20021;-82
2022/04/21 05:00:05;;;;;;;14.27;8.35;;;;;;;;;;5083357;28;20047;-82
2022/04/21 05:02:30;;;;;;;12.48;8.85;;;;;;;;;;5077050;28;20021;-82
2022/04/21 05:04:56;;;;;;;13.77;9.93;;;;;;;;;;5069025;28;20028;-82
2022/04/21 05:07:21;;;;;;;14.70;9.65;;;;;;;;;;5061911;28;20016;-82
2022/04/21 05:09:47;;;;;;;11.82;8.10;;;;;;;;;;5075607;28;20050;-81
2022/04/21 05:12:12;;;;;;;11.80;8.20;;;;;;;;;;5073374;28;20040;-81
2022/04/21 05:14:38;;;;;;;14.00;8.68;;;;;;;;;;5049483;28;20029;-82
2022/04/21 05:17:03;;;;;;;15.07;9.02;;;;;;;;;;5062928;28;20216;-82
2022/04/21 05:19:29;;;;;;;13.77;8.35;;;;;;;;;;5076064;28;20036;-82
2022/04/21 05:22:00;;;;;;;12.15;8.88;;;;;;;;;;5068277;28;20021;-82
2022/04/21 05:24:27;;;;;;;12.50;9.07;;;;;;;;;;5036897;28;20475;-82
2022/04/21 05:26:53;;;;;;;13.20;8.30;;;;;;;;;;5055550;28;20029;-81
2022/04/21 05:32:04;;;;;;;13.98;9.27;;;;;;;;;;5067833;28;20433;-81
2022/04/21 05:34:31;;;;;;;12.05;8.73;;;;;;;;;;5050796;28;20029;-81
2022/04/21 05:36:58;;;;;;;14.57;8.98;;;;;;;;;;5076051;28;20017;-81
2022/04/21 05:39:24;;;;;;;19.48;9.32;;;;;;;;;;5051148;28;20575;-81
2022/04/21 05:41:52;;;;;;;13.70;8.63;;;;;;;;;;5053653;28;20017;-81
2022/04/21 05:44:18;;;;;;;12.82;8.65;;;;;;;;;;5036474;28;20035;-81
2022/04/21 05:46:44;;;;;;;16.60;9.52;;;;;;;;;;5057785;28;20109;-81
2022/04/21 05:49:10;;;;;;;12.32;9.10;;;;;;;;;;5047771;28;20057;-82
2022/04/21 05:51:36;;;;;;;16.98;9.07;;;;;;;;;;5051825;28;20021;-81
2022/04/21 05:54:05;;;;;;;11.88;7.82;;;;;;;;;;5049850;28;20066;-81
2022/04/21 05:56:30;;;;;;;12.52;8.48;;;;;;;;;;5054822;28;20039;-82
2022/04/21 05:58:56;;;;;;;10.02;7.90;;;;;;;;;;5055369;28;20414;-82
2022/04/21 06:01:21;;;;;;;25.95;8.73;;;;;;;;;;5057500;28;20079;-82
2022/04/21 06:03:46;;;;;;;16.58;9.05;;;;;;;;;;5039724;28;20040;-81
2022/04/21 06:06:12;;;;;;;13.82;8.55;;;;;;;;;;5040161;28;20048;-83
2022/04/21 06:08:38;;;;;;;16.27;8.68;;;;;;;;;;5048634;28;20025;-82
2022/04/21 06:11:04;;;;;;;10.55;7.85;;;;;;;;;;5053946;28;20053;-83
2022/04/21 06:13:30;;;;;;;16.13;8.75;;;;;;;;;;5052124;28;20438;-83
2022/04/21 06:15:57;;;;;;;12.32;8.43;;;;;;;;;;5053814;28;20016;-83
2022/04/21 06:18:23;;;;;;;14.95;8.70;;;;;;;;;;5041470;28;20029;-86
2022/04/21 06:20:49;;;;;;;9.45;7.47;;;;;;;;;;5036309;28;20032;-84
2022/04/21 06:23:14;;;;;;;10.35;8.18;;;;;;;;;;5034999;28;20037;-80
2022/04/21 06:25:43;;;;;;;14.93;8.80;;;;;;;;;;5055684;28;20029;-84
2022/04/21 06:28:10;;;;;;;13.02;7.60;;;;;;;;;;5029044;28;20056;-83
2022/04/21 06:30:35;;;;;;;10.52;7.45;;;;;;;;;;5021790;28;20025;-83
2022/04/21 06:33:01;;;;;;;10.05;7.47;;;;;;;;;;5049429;28;20104;-83
2022/04/21 06:35:27;;;;;;;12.18;7.63;;;;;;;;;;5053831;28;20088;-83
2022/04/21 06:37:56;;;;;;;13.15;7.63;;;;;;;;;;5048441;28;20562;-82
2022/04/21 06:40:22;;;;;;;10.65;7.65;;;;;;;;;;5043024;28;20029;-81
2022/04/21 06:42:48;;;;;;;12.38;8.10;;;;;;;;;;5057713;28;20032;-83
2022/04/21 06:48:04;;;;;;;10.43;7.60;;;;;;;;;;5054229;28;20060;-83
2022/04/21 06:50:36;;;;;;;10.05;7.43;;;;;;;;;;5053399;28;20020;-83
2022/04/21 06:53:02;;;;;;;11.05;7.68;;;;;;;;;;5067894;28;20502;-83
2022/04/21 06:55:28;;;;;;;10.23;7.60;;;;;;;;;;5076861;28;20020;-82
2022/04/21 06:57:54;;;;;;;12.95;7.47;;;;;;;;;;5070326;28;20086;-81
2022/04/21 07:00:19;;;;;;;11.65;7.03;;;;;;;;;;5059820;28;20032;-83
2022/04/21 07:02:45;;;;;;;9.90;7.28;;;;;;;;;;5051791;28;20052;-83
2022/04/21 07:05:13;;;;;;;9.15;6.88;;;;;;;;;;5057129;28;20025;-83
2022/04/21 07:07:40;;;;;;;7.97;6.80;;;;;;;;;;5058010;28;20044;-82
2022/04/21 07:10:07;;;;;;;8.70;7.50;;;;;;;;;;5068645;28;20052;-83
2022/04/21 07:12:33;;;;;;;12.43;8.07;;;;;;;;;;5075734;28;20031;-83
2022/04/21 07:15:10;;;;;;;9.38;7.07;;;;;;;;;;5074648;28;20055;-82
2022/04/21 07:17:37;;;;;;;14.73;8.13;;;;;;;;;;5047735;28;20080;-84
2022/04/21 07:20:04;;;;;;;9.38;7.40;;;;;;;;;;5039333;28;20022;-83
2022/04/21 07:22:30;;;;;;;12.60;7.88;;;;;;;;;;5056855;28;20514;-82
2022/04/21 07:24:57;;;;;;;11.73;7.57;;;;;;;;;;5038903;28;20429;-82
2022/04/21 07:27:23;;;;;;;12.05;7.32;;;;;;;;;;5057633;28;20028;-81
2022/04/21 07:29:49;;;;;;;9.82;7.80;;;;;;;;;;5057663;28;20025;-82
2022/04/21 07:32:15;;;;;;;9.93;7.57;;;;;;;;;;5067858;28;20068;-83
2022/04/21 07:34:40;;;;;;;12.77;8.05;;;;;;;;;;5052419;28;20552;-84
2022/04/21 07:37:08;;;;;;;10.77;7.93;;;;;;;;;;5034036;28;20022;-84
2022/04/21 07:39:34;;;;;;;16.27;7.75;;;;;;;;;;5045137;28;20062;-83
2022/04/21 07:42:00;;;;;;;9.50;7.40;;;;;;;;;;5069629;28;20020;-83
2022/04/21 07:44:31;;;;;;;10.13;7.60;;;;;;;;;;5076661;28;20021;-83
2022/04/21 07:46:57;;;;;;;14.15;7.25;;;;;;;;;;5076626;28;20362;-83
2022/04/21 07:54:52;;;;;;;10.43;7.30;;;;;;;;;;5048652;28;20113;-83
2022/04/21 07:57:17;;;;;;;9.45;7.30;;;;;;;;;;5050602;28;20459;-84
2022/04/21 07:59:43;;;;;;;9.63;7.43;;;;;;;;;;5057478;28;20056;-83
2022/04/21 08:02:09;;;;;;;10.02;7.97;;;;;;;;;;5040043;28;20032;-82
2022/04/21 08:04:37;;;;;;;9.57;6.68;;;;;;;;;;5040515;28;20032;-83
2022/04/21 08:07:04;;;;;;;9.55;7.18;;;;;;;;;;5034505;28;20043;-83
2022/04/21 08:09:29;;;;;;;10.07;6.90;;;;;;;;;;5047972;28;20483;-84
2022/04/21 08:11:56;;;;;;;8.90;7.60;;;;;;;;;;5066872;28;20027;-89
2022/04/21 08:14:22;;;;;;;13.75;6.85;;;;;;;;;;5078654;28;20033;-85
2022/04/21 08:16:47;;;;;;;10.75;8.25;;;;;;;;;;5080009;28;20028;-83
2022/04/21 08:19:13;;;;;;;9.20;7.88;;;;;;;;;;5043822;28;20060;-84
2022/04/21 08:21:38;;;;;;;11.23;8.00;;;;;;;;;;5030434;28;20021;-84
2022/04/21 08:35:01;;;;;;;10.40;7.28;;;;;;;;;;5066066;28;20059;-83
2022/04/21 08:37:27;;;;;;;11.05;7.30;;;;;;;;;;5033909;28;20024;-83
2022/04/21 08:39:53;;;;;;;10.85;7.18;;;;;;;;;;5057090;28;20025;-84
2022/04/21 08:42:20;;;;;;;10.80;7.60;;;;;;;;;;5056159;28;20054;-83
2022/04/21 08:44:47;;;;;;;10.70;7.93;;;;;;;;;;5055877;28;20044;-83
2022/04/21 08:47:14;;;;;;;10.60;6.80;;;;;;;;;;5056299;28;20097;-84
2022/04/21 08:49:42;;;;;;;13.35;7.93;;;;;;;;;;5056710;28;20052;-82
2022/04/21 08:52:11;;;;;;;9.88;7.30;;;;;;;;;;5056938;28;20029;-83
2022/04/21 08:54:36;;;;;;;8.02;7.05;;;;;;;;;;5056079;28;20386;-83
2022/04/21 08:57:02;;;;;;;11.65;6.90;;;;;;;;;;5056557;28;20080;-84
2022/04/21 08:59:27;;;;;;;8.20;6.88;;;;;;;;;;5056921;28;20507;-84
2022/04/21 09:01:53;;;;;;;9.75;6.50;;;;;;;;;;5059921;28;20084;-84
2022/04/21 09:04:18;;;;;;;7.72;6.15;;;;;;;;;;5060622;28;20028;-83
2022/04/21 09:06:43;;;;;;;16.15;6.40;;;;;;;;;;5067228;28;20105;-82
2022/04/21 09:09:14;;;;;;;8.27;5.93;;;;;;;;;;5055415;28;20093;-83
2022/04/21 09:11:43;;;;;;;11.05;6.40;;;;;;;;;;5078399;28;20421;-83
2022/04/21 09:14:15;;;;;;;10.80;6.40;;;;;;;;;;5072080;28;20073;-83
2022/04/21 09:16:40;;;;;;;7.68;5.65;;;;;;;;;;5079822;28;20024;-82
2022/04/21 09:19:06;;;;;;;7.55;5.28;;;;;;;;;;5062780;28;20025;-84
2022/04/21 09:21:39;;;;;;;8.30;5.60;;;;;;;;;;5058336;28;20026;-82
2022/04/21 09:24:26;;;;;;;7.50;5.82;;;;;;;;;;5057165;28;20055;-85
2022/04/21 09:26:55;;;;;;;10.63;5.38;;;;;;;;;;5054575;28;20021;-84
2022/04/21 09:29:33;;;;;;;7.40;5.40;;;;;;;;;;5056554;28;20494;-83
2022/04/21 09:32:03;;;;;;;6.57;5.57;;;;;;;;;;5056625;28;20050;-84
2022/04/21 09:34:29;;;;;;;8.05;4.68;;;;;;;;;;5060487;28;20025;-83
2022/04/21 09:36:58;;;;;;;7.20;4.88;;;;;;;;;;5051245;28;20035;-82
2022/04/21 09:39:24;;;;;;;5.90;4.63;;;;;;;;;;5052809;28;20025;-82
2022/04/21 09:41:56;;;;;;;7.57;4.28;;;;;;;;;;5056262;28;20450;-82
2022/04/21 09:47:28;;;;;;;6.35;4.30;;;;;;;;;;5041755;28;20039;-85
2022/04/21 09:49:53;;;;;;;6.53;4.40;;;;;;;;;;5037622;28;20031;-85
2022/04/21 09:52:28;;;;;;;7.10;4.70;;;;;;;;;;5041319;28;20116;-85
2022/04/21 09:54:54;;;;;;;6.68;4.70;;;;;;;;;;5023311;28;20017;-84
2022/04/21 09:57:32;;;;;;;8.07;4.10;;;;;;;;;;5043920;28;20021;-83
2022/04/21 09:59:58;;;;;;;7.32;3.97;;;;;;;;;;5042280;28;20081;-83
2022/04/21 10:02:25;;;;;;;6.53;4.20;;;;;;;;;;5043088;28;20380;-83
2022/04/21 10:04:51;;;;;;;11.57;3.70;;;;;;;;;;5041247;28;20021;-84
2022/04/21 10:07:17;;;;;;;5.07;3.25;;;;;;;;;;5056117;28;20002;-83
2022/04/21 10:09:42;;;;;;;5.35;4.07;;;;;;;;;;5045937;28;20065;-84
2022/04/21 10:12:09;;;;;;;4.53;3.50;;;;;;;;;;5049398;28;20025;-82
2022/04/21 10:14:35;;;;;;;8.77;4.00;;;;;;;;;;5058268;28;20394;-85
2022/04/21 10:17:00;;;;;;;4.93;3.88;;;;;;;;;;5059995;28;20080;-84
2022/04/21 10:19:38;;;;;;;6.18;3.83;;;;;;;;;;5047753;28;20049;-86
2022/04/21 10:22:10;;;;;;;5.18;3.88;;;;;;;;;;5022707;28;20048;-85
2022/04/21 10:24:37;;;;;;;4.20;2.95;;;;;;;;;;5042263;28;20013;-84
2022/04/21 10:27:03;;;;;;;7.03;3.97;;;;;;;;;;5041972;28;20037;-82
2022/04/21 10:29:29;;;;;;;7.30;3.67;;;;;;;;;;5039755;28;20027;-83
2022/04/21 10:32:05;;;;;;;5.28;3.97;;;;;;;;;;5021173;28;20094;-84
2022/04/21 10:34:45;;;;;;;4.30;3.45;;;;;;;;;;5043867;28;20024;-83
2022/04/21 10:37:12;;;;;;;4.18;3.55;;;;;;;;;;5019650;28;20030;-83
2022/04/21 10:39:39;;;;;;;4.47;3.65;;;;;;;;;;5039608;28;20025;-85
2022/04/21 10:42:12;;;;;;;4.90;3.45;;;;;;;;;;5046768;28;20030;-85
2022/04/21 10:44:43;;;;;;;4.28;3.10;;;;;;;;;;5048615;28;20035;-84
2022/04/21 10:47:28;;;;;;;4.18;3.17;;;;;;;;;;5034850;28;20017;-84
2022/04/21 10:49:57;;;;;;;3.63;3.20;;;;;;;;;;5030998;28;20024;-83
2022/04/21 10:57:44;;;;;;;9.30;3.47;;;;;;;;;;5042897;28;20039;-82
2022/04/21 11:00:31;;;;;;;3.88;2.95;;;;;;;;;;5027644;28;20435;-83
2022/04/21 11:03:02;;;;;;;3.50;3.05;;;;;;;;;;5012778;28;20079;-81
2022/04/21 11:05:33;;;;;;;3.10;2.50;;;;;;;;;;5061384;28;20040;-80
2022/04/21 11:08:03;;;;;;;3.00;2.70;;;;;;;;;;5004914;28;20321;-80
2022/04/21 11:10:38;;;;;;;3.28;2.88;;;;;;;;;;5043191;28;20053;-82
2022/04/21 11:13:08;;;;;;;3.30;2.70;;;;;;;;;;5050930;28;20099;-81
2022/04/21 11:15:46;;;;;;;4.18;2.67;;;;;;;;;;5051383;28;20039;-86
2022/04/21 11:18:12;;;;;;;5.10;2.67;;;;;;;;;;5045974;28;20044;-81
2022/04/21 11:20:43;;;;;;;3.08;2.38;;;;;;;;;;5045403;28;20025;-82
2022/04/21 11:23:09;;;;;;;2.92;2.30;;;;;;;;;;5040240;28;20167;-88
2022/04/21 11:25:35;;;;;;;3.00;2.13;;;;;;;;;;5039486;28;20017;-83
2022/04/21 11:28:01;;;;;;;4.35;2.63;;;;;;;;;;5053665;28;20024;-84
2022/04/21 11:30:30;;;;;;;3.58;2.20;;;;;;;;;;5038024;28;20043;-83
2022/04/21 11:32:56;;;;;;;4.20;2.50;;;;;;;;;;5048447;28;20146;-84
2022/04/21 11:35:22;;;;;;;2.45;2.25;;;;;;;;;;5060464;28;20055;-82
2022/04/21 11:37:49;;;;;;;3.50;2.38;;;;;;;;;;5050260;28;20526;-82
2022/04/21 11:40:19;;;;;;;2.30;2.10;;;;;;;;;;5064923;28;20033;-81
2022/04/21 11:42:44;;;;;;;2.22;1.88;;;;;;;;;;5040969;28;20559;-82
2022/04/21 11:45:10;;;;;;;3.05;2.33;;;;;;;;;;5056238;28;20083;-82
2022/04/21 11:47:38;;;;;;;3.10;2.28;;;;;;;;;;5045019;28;20041;-81
2022/04/21 11:50:03;;;;;;;2.85;1.98;;;;;;;;;;5026913;28;20022;-81
2022/04/21 11:52:29;;;;;;;2.35;1.90;;;;;;;;;;5036583;28;20086;-82
2022/04/21 11:55:04;;;;;;;3.42;2.75;;;;;;;;;;5043241;28;20025;-82
2022/04/21 11:57:42;;;;;;;5.40;1.95;;;;;;;;;;5049814;28;20069;-81
2022/04/21 12:00:08;;;;;;;3.53;2.15;;;;;;;;;;5039574;28;20039;-81
2022/04/21 12:08:10;;;;;;;1.90;1.80;;;;;;;;;;5037822;28;20383;-83
2022/04/21 12:10:36;;;;;;;2.90;2.00;;;;;;;;;;5040117;28;20040;-82
2022/04/21 12:13:02;;;;;;;4.22;2.40;;;;;;;;;;5035349;28;20491;-82
2022/04/21 12:15:29;;;;;;;4.28;2.30;;;;;;;;;;5030653;28;20633;-83
2022/04/21 12:18:02;;;;;;;2.28;2.05;;;;;;;;;;5020630;28;20110;-84
2022/04/21 12:20:28;;;;;;;3.45;2.40;;;;;;;;;;5037924;28;20077;-83
2022/04/21 12:22:54;;;;;;;5.55;2.30;;;;;;;;;;5039058;28;20061;-84
2022/04/21 12:25:28;;;;;;;3.22;2.60;;;;;;;;;;5020560;28;20028;-83
2022/04/21 12:27:54;;;;;;;2.65;2.25;;;;;;;;;;5020233;28;20025;-83
2022/04/21 12:30:20;;;;;;;6.13;2.35;;;;;;;;;;5038137;28;20514;-82
2022/04/21 12:32:47;;;;;;;2.13;1.90;;;;;;;;;;5022472;28;20037;-82
2022/04/21 12:35:13;;;;;;;2.05;1.80;;;;;;;;;;5020091;28;20506;-81
2022/04/21 12:37:46;;;;;;;2.70;2.28;;;;;;;;;;5043095;28;20449;-79
2022/04/21 12:40:14;;;;;;;2.55;1.85;;;;;;;;;;5054368;28;20025;-80
2022/04/21 12:42:43;;;;;;;3.28;2.13;;;;;;;;;;5045352;28;20040;-80
2022/04/21 12:45:09;;;;;;;1.95;1.80;;;;;;;;;;5041521;28;20487;-80
2022/04/21 12:47:49;;;;;;;5.95;2.15;;;;;;;;;;5042069;28;20077;-81
2022/04/21 12:50:22;;;;;;;2.53;2.03;;;;;;;;;;5037569;28;20030;-81
2022/04/21 12:52:49;;;;;;;2.70;1.70;;;;;;;;;;5016900;28;20025;-80
2022/04/21 12:55:17;;;;;;;5.35;2.38;;;;;;;;;;5041868;28;20109;-81
2022/04/21 12:58:00;;;;;;;2.50;1.80;;;;;;;;;;5040498;28;20030;-83
2022/04/21 13:00:25;;;;;;;2.60;2.00;;;;;;;;;;5042522;28;20411;-80
2022/04/21 13:02:51;;;;;;;9.63;2.45;;;;;;;;;;5042002;28;20479;-81
2022/04/21 13:05:16;;;;;;;4.03;2.00;;;;;;;;;;5041266;28;20025;-83
2022/04/21 13:07:42;;;;;;;3.00;2.03;;;;;;;;;;5041007;28;20467;-80
2022/04/21 13:10:07;;;;;;;2.88;1.98;;;;;;;;;;5046498;28;20116;-81
2022/04/21 13:12:33;;;;;;;6.55;2.88;;;;;;;;;;5054859;28;20033;-82
2022/04/21 13:14:59;;;;;;;3.85;2.60;;;;;;;;;;5049661;28;20031;-81
2022/04/21 13:17:25;;;;;;;5.65;2.10;;;;;;;;;;5040731;28;20041;-81
2022/04/21 13:19:50;;;;;;;8.77;2.38;;;;;;;;;;5040013;28;20033;-80
2022/04/21 13:22:16;;;;;;;5.18;2.42;;;;;;;;;;5040756;28;20021;-81
2022/04/21 13:24:41;;;;;;;7.55;3.00;;;;;;;;;;5039663;28;20026;-81
2022/04/21 13:27:07;;;;;;;13.55;2.47;;;;;;;;;;5039934;28;20025;-80
2022/04/21 13:29:33;;;;;;;4.60;2.58;;;;;;;;;;5040409;28;20021;-81
2022/04/21 13:34:43;;;;;;;11.48;2.55;;;;;;;;;;5034210;28;20112;-81
2022/04/21 13:37:09;;;;;;;3.78;2.60;;;;;;;;;;5041124;28;20033;-83
2022/04/21 13:39:35;;;;;;;4.28;2.90;;;;;;;;;;5034786;28;20055;-82
2022/04/21 13:42:01;;;;;;;8.05;2.53;;;;;;;;;;5049441;28;20024;-83
2022/04/21 13:44:27;;;;;;;3.58;2.63;;;;;;;;;;5061512;28;20036;-86
2022/04/21 13:46:54;;;;;;;5.90;2.20;;;;;;;;;;5041154;28;20032;-81
2022/04/21 13:49:20;;;;;;;7.55;2.60;;;;;;;;;;5041735;28;20025;-82
2022/04/21 13:51:45;;;;;;;2.47;2.25;;;;;;;;;;5040818;28;20032;-81
2022/04/21 13:54:13;;;;;;;4.40;2.42;;;;;;;;;;5022888;28;20025;-80
2022/04/21 13:56:39;;;;;;;3.15;2.47;;;;;;;;;;5036261;28;20042;-80
2022/04/21 13:59:04;;;;;;;3.20;2.60;;;;;;;;;;5039391;28;20024;-83
2022/04/21 14:01:30;;;;;;;3.72;2.95;;;;;;;;;;5063575;28;20108;-89
2022/04/21 14:03:56;;;;;;;3.72;2.70;;;;;;;;;;5021503;28;20029;-81
2022/04/21 14:06:21;;;;;;;2.67;2.25;;;;;;;;;;5043772;28;20045;-82
2022/04/21 14:08:47;;;;;;;8.73;2.53;;;;;;;;;;5033789;28;20018;-79
2022/04/21 14:11:15;;;;;;;3.30;2.35;;;;;;;;;;5037772;28;20009;-80
2022/04/21 14:13:45;;;;;;;3.95;2.97;;;;;;;;;;5057217;28;20063;-79
2022/04/21 14:16:12;;;;;;;4.63;2.88;;;;;;;;;;5050924;28;20029;-79
2022/04/21 14:18:38;;;;;;;5.47;2.17;;;;;;;;;;5047327;28;20029;-78
2022/04/21 14:21:06;;;;;;;3.17;2.40;;;;;;;;;;5046863;28;20021;-80
2022/04/21 14:23:37;;;;;;;2.55;2.20;;;;;;;;;;5038419;28;20025;-79
2022/04/21 14:26:08;;;;;;;3.00;2.28;;;;;;;;;;5043894;28;20025;-79
2022/04/21 14:28:35;;;;;;;3.58;2.30;;;;;;;;;;5034383;28;20108;-79
2022/04/21 14:31:01;;;;;;;6.05;2.40;;;;;;;;;;5024532;28;20026;-79
2022/04/21 14:33:26;;;;;;;4.40;2.35;;;;;;;;;;5041671;28;20058;-79
2022/04/21 14:35:52;;;;;;;7.30;2.58;;;;;;;;;;5038105;28;20029;-80
2022/04/21 14:44:04;;;;;;;4.32;1.92;;;;;;;;;;5041797;28;20044;-83
2022/04/21 14:46:34;;;;;;;3.67;2.10;;;;;;;;;;5030881;28;20033;-79
2022/04/21 14:48:59;;;;;;;5.93;2.10;;;;;;;;;;5027830;28;20018;-80
2022/04/21 14:51:26;;;;;;;3.65;2.00;;;;;;;;;;5035630;28;20032;-80
2022/04/21 14:53:52;;;;;;;2.55;1.98;;;;;;;;;;5032486;28;20028;-80
2022/04/21 14:56:17;;;;;;;5.82;2.05;;;;;;;;;;5053859;28;20025;-82
2022/04/21 14:58:42;;;;;;;4.07;1.90;;;;;;;;;;5028951;28;20032;-83
2022/04/21 15:01:08;;;;;;;2.88;1.83;;;;;;;;;;5031939;28;20109;-81
2022/04/21 15:03:36;;;;;;;3.70;2.00;;;;;;;;;;5039415;28;20051;-81
2022/04/21 15:06:04;;;;;;;2.90;1.73;;;;;;;;;;5035808;28;20017;-81
2022/04/21 15:08:30;;;;;;;2.53;1.85;;;;;;;;;;5046352;28;20025;-80
2022/04/21 15:11:14;;;;;;;2.25;1.75;;;;;;;;;;5039130;28;20037;-84
2022/04/21 15:13:39;;;;;;;1.98;1.70;;;;;;;;;;5134110;23;20033;-83
2022/04/21 15:16:05;;;;;;;3.53;1.85;;;;;;;;;;5038268;28;20915;-81
2022/04/21 15:18:31;;;;;;;1.80;1.70;;;;;;;;;;5042311;28;20092;-80
2022/04/21 15:20:57;;;;;;;2.80;1.85;;;;;;;;;;5027668;28;20029;-81
2022/04/21 15:23:24;;;;;;;4.25;2.13;;;;;;;;;;5030480;28;20030;-81
2022/04/21 15:25:52;;;;;;;2.22;1.73;;;;;;;;;;5003554;28;20132;-81
2022/04/21 15:28:18;;;;;;;3.22;1.92;;;;;;;;;;5028749;28;20025;-80
2022/04/21 15:30:43;;;;;;;1.63;1.52;;;;;;;;;;5028414;28;20077;-82
2022/04/21 15:33:10;;;;;;;2.47;1.60;;;;;;;;;;5030675;28;20029;-82
2022/04/21 15:35:38;;;;;;;3.10;1.88;;;;;;;;;;5016078;28;20021;-82
2022/04/21 15:38:04;;;;;;;4.07;2.15;;;;;;;;;;5020089;28;20153;-81
2022/04/21 15:40:30;;;;;;;2.20;1.85;;;;;;;;;;5027909;28;20116;-82
2022/04/21 15:42:55;;;;;;;2.53;2.00;;;;;;;;;;5032107;28;20071;-84